Time;durP1;ratioP1;P1;durP2;ratioP2;P2;SDS_P1;SDS_P2;PMS_P1;PMS_P2;Temp;Humidity;BMP_temperature;BMP_pressure;BME280_temperature;BME280_humidity;BME280_pressure;Samples;Min_cycle;Max_cycle;Signal;HPM_P1;HPM_P2
2022/03/10 00:01:10;;;;;;;8.20;4.70;;;16.60;34.80;15.70;102096.00;;;;5053969;28;20139;-65
2022/03/10 00:03:56;;;;;;;5.43;4.18;;;16.60;34.80;15.70;102099.00;;;;5053047;28;20052;-65
2022/03/10 00:06:42;;;;;;;5.43;4.22;;;16.50;34.80;15.70;102102.00;;;;5037387;28;20040;-65
2022/03/10 00:09:29;;;;;;;5.47;3.67;;;16.50;34.80;15.70;102097.00;;;;5055532;28;20041;-65
2022/03/10 00:12:15;;;;;;;5.72;4.53;;;16.50;34.90;15.60;102102.00;;;;5051129;28;20375;-65
2022/03/10 00:15:07;;;;;;;6.85;4.00;;;16.50;34.90;15.60;102106.00;;;;5048862;28;20037;-65
2022/03/10 00:17:54;;;;;;;6.18;4.22;;;16.50;34.90;15.60;102122.00;;;;5014177;28;20099;-65
2022/03/10 00:20:40;;;;;;;6.85;4.90;;;16.50;34.90;15.60;102110.00;;;;5039046;28;20051;-65
2022/03/10 00:23:26;;;;;;;7.65;4.20;;;16.50;34.90;15.60;102118.00;;;;5051369;28;20501;-65
2022/03/10 00:26:12;;;;;;;6.05;4.22;;;16.50;35.00;15.60;102122.00;;;;5051299;28;20041;-65
2022/03/10 00:28:58;;;;;;;6.10;4.32;;;16.50;35.00;15.60;102129.00;;;;5053236;28;20045;-65
2022/03/10 00:31:44;;;;;;;6.95;4.53;;;16.50;35.00;15.60;102126.00;;;;5051927;28;20044;-65
2022/03/10 00:34:32;;;;;;;6.50;4.53;;;16.50;35.00;15.60;102122.00;;;;5054464;28;20063;-65
2022/03/10 00:37:18;;;;;;;5.45;4.55;;;16.50;35.00;15.60;102118.00;;;;5056972;28;20044;-65
2022/03/10 00:40:05;;;;;;;6.35;4.38;;;16.50;35.00;15.60;102126.00;;;;5055126;28;20041;-65
2022/03/10 00:42:51;;;;;;;6.15;4.05;;;16.50;35.00;15.60;102119.00;;;;5050606;28;20395;-65
2022/03/10 00:45:37;;;;;;;5.18;3.95;;;16.50;35.00;15.60;102113.00;;;;5053671;28;20048;-65
2022/03/10 00:48:24;;;;;;;7.82;5.05;;;16.50;35.00;15.60;102114.00;;;;5040886;28;20080;-65
2022/03/10 00:51:10;;;;;;;6.50;4.75;;;16.50;35.00;15.60;102115.00;;;;5054966;28;20458;-65
2022/03/10 00:53:56;;;;;;;5.88;4.65;;;16.40;35.00;15.60;102112.00;;;;5057643;28;20131;-65
2022/03/10 00:56:42;;;;;;;7.10;4.53;;;16.50;35.00;15.60;102120.00;;;;5040345;28;20509;-65
2022/03/10 00:59:28;;;;;;;6.22;4.15;;;16.50;35.00;15.60;102111.00;;;;5040923;28;20041;-65
2022/03/10 01:02:14;;;;;;;7.28;4.43;;;16.50;35.10;15.60;102112.00;;;;5056121;28;20044;-65
2022/03/10 01:05:01;;;;;;;8.68;4.30;;;16.40;35.70;15.60;102112.00;;;;5043309;28;20389;-65
2022/03/10 01:07:47;;;;;;;6.43;4.88;;;16.50;35.10;15.60;102119.00;;;;5055233;28;20032;-65
2022/03/10 01:10:33;;;;;;;5.82;4.40;;;16.50;35.10;15.60;102108.00;;;;5043917;28;20450;-65
2022/03/10 01:13:19;;;;;;;5.78;4.38;;;16.40;35.00;15.60;102111.00;;;;5057097;28;20040;-65
2022/03/10 01:16:05;;;;;;;5.65;4.45;;;16.40;35.00;15.60;102117.00;;;;5041985;28;20044;-65
2022/03/10 01:18:51;;;;;;;6.25;4.60;;;16.40;35.00;15.60;102122.00;;;;5057300;28;20040;-65
2022/03/10 01:21:37;;;;;;;5.78;4.65;;;16.40;35.00;15.60;102120.00;;;;5056601;28;20032;-65
2022/03/10 01:24:24;;;;;;;5.40;4.20;;;16.40;35.00;15.60;102118.00;;;;5049362;28;20474;-65
2022/03/10 01:27:10;;;;;;;5.78;4.53;;;16.40;35.00;15.60;102122.00;;;;5038272;28;20387;-65
2022/03/10 01:29:56;;;;;;;5.78;4.63;;;16.40;35.00;15.60;102121.00;;;;5040926;28;20513;-65
2022/03/10 01:32:42;;;;;;;6.43;4.80;;;16.40;35.00;15.50;102132.00;;;;5052873;28;20040;-65
2022/03/10 01:35:28;;;;;;;7.05;5.25;;;16.40;35.00;15.60;102136.00;;;;5042852;28;20173;-65
2022/03/10 01:38:14;;;;;;;7.55;4.60;;;16.40;35.00;15.50;102126.00;;;;5058022;28;20115;-65
2022/03/10 01:41:01;;;;;;;6.72;5.32;;;16.40;35.10;15.50;102133.00;;;;5053704;28;20333;-65
2022/03/10 01:43:57;;;;;;;5.85;4.43;;;16.40;35.00;15.50;102125.00;;;;5058579;28;20094;-65
2022/03/10 01:46:43;;;;;;;7.15;4.72;;;16.40;35.00;15.50;102132.00;;;;5043091;28;20050;-65
2022/03/10 01:49:29;;;;;;;6.60;4.65;;;16.40;35.00;15.50;102119.00;;;;5050951;28;20098;-65
2022/03/10 01:52:15;;;;;;;8.35;5.50;;;16.40;35.00;15.50;102121.00;;;;5054702;28;20051;-65
2022/03/10 01:55:01;;;;;;;5.18;4.18;;;16.40;35.00;15.50;102127.00;;;;5052609;28;20518;-65
2022/03/10 01:57:47;;;;;;;6.13;4.28;;;16.40;35.10;15.50;102119.00;;;;5041953;28;20402;-65
2022/03/10 02:00:33;;;;;;;7.40;5.47;;;16.40;35.10;15.50;102120.00;;;;5051766;28;20235;-65
2022/03/10 02:03:19;;;;;;;6.13;4.68;;;16.40;35.00;15.50;102128.00;;;;5055783;28;20482;-65
2022/03/10 02:06:05;;;;;;;9.02;5.43;;;16.40;35.00;15.50;102118.00;;;;5058968;28;20059;-65
2022/03/10 02:11:58;;;;;;;7.25;4.95;;;16.40;35.00;15.50;102116.00;;;;5042731;28;20410;-65
2022/03/10 02:17:48;;;;;;;7.15;5.03;;;16.40;35.00;15.50;102108.00;;;;5056010;28;20056;-65
2022/03/10 02:20:35;;;;;;;7.97;5.28;;;16.40;35.00;15.50;102110.00;;;;5057201;28;20040;-65
2022/03/10 02:23:22;;;;;;;7.95;5.68;;;16.40;35.00;15.50;102104.00;;;;5041370;28;20047;-65
2022/03/10 02:26:08;;;;;;;6.50;4.78;;;16.40;35.00;15.50;102106.00;;;;5057891;28;20044;-65
2022/03/10 02:28:54;;;;;;;7.80;5.75;;;16.40;35.00;15.50;102107.00;;;;5049707;28;20049;-65
2022/03/10 02:31:41;;;;;;;7.35;5.15;;;16.40;35.00;15.50;102104.00;;;;5042019;28;20048;-65
2022/03/10 02:34:27;;;;;;;7.18;4.72;;;16.40;35.00;15.50;102102.00;;;;5060983;28;20461;-65
2022/03/10 02:37:13;;;;;;;7.03;5.22;;;16.40;35.00;15.50;102102.00;;;;5052689;28;20041;-65
2022/03/10 02:39:59;;;;;;;7.20;5.05;;;16.30;34.90;15.50;102106.00;;;;5041770;28;20133;-65
2022/03/10 02:42:45;;;;;;;6.80;5.13;;;16.40;35.00;15.50;102092.00;;;;5052095;28;20397;-65
2022/03/10 02:45:31;;;;;;;7.43;5.18;;;16.30;34.90;15.50;102099.00;;;;5054135;28;20048;-65
2022/03/10 02:48:18;;;;;;;6.15;4.70;;;16.40;35.00;15.50;102096.00;;;;5038631;28;20041;-65
2022/03/10 02:51:04;;;;;;;10.18;4.97;;;16.40;35.00;15.50;102093.00;;;;5039321;28;20076;-65
2022/03/10 02:53:50;;;;;;;8.40;5.10;;;16.30;34.90;15.50;102101.00;;;;5055434;28;20040;-65
2022/03/10 02:56:36;;;;;;;8.00;5.38;;;16.30;34.90;15.50;102098.00;;;;5053727;28;20033;-65
2022/03/10 02:59:22;;;;;;;8.05;5.45;;;16.30;34.90;15.50;102096.00;;;;5055979;28;20037;-65
2022/03/10 03:02:08;;;;;;;6.78;5.25;;;16.30;34.90;15.40;102099.00;;;;5041703;28;20037;-65
2022/03/10 03:04:54;;;;;;;6.60;5.05;;;16.30;34.90;15.40;102099.00;;;;5040419;28;20040;-65
2022/03/10 03:07:41;;;;;;;7.65;5.22;;;16.30;34.90;15.40;102089.00;;;;5052551;28;20067;-65
2022/03/10 03:10:27;;;;;;;7.13;5.00;;;16.30;34.90;15.40;102094.00;;;;5041397;28;20045;-65
2022/03/10 03:13:13;;;;;;;9.45;5.50;;;16.30;34.90;15.40;102089.00;;;;5034927;28;20486;-65
2022/03/10 03:15:59;;;;;;;6.70;5.22;;;16.30;34.90;15.40;102094.00;;;;5052664;28;20041;-65
2022/03/10 03:18:45;;;;;;;7.13;5.07;;;16.30;34.90;15.40;102096.00;;;;5056483;28;20036;-65
2022/03/10 03:21:31;;;;;;;9.38;5.60;;;16.30;34.90;15.40;102103.00;;;;5056280;28;20051;-65
2022/03/10 03:24:18;;;;;;;9.75;5.78;;;16.30;34.90;15.40;102104.00;;;;5058415;28;20048;-65
2022/03/10 03:27:04;;;;;;;6.90;5.13;;;16.30;34.90;15.40;102106.00;;;;5052470;28;20052;-65
2022/03/10 03:29:50;;;;;;;7.40;5.47;;;16.30;34.90;15.40;102118.00;;;;5042131;28;20525;-65
2022/03/10 03:32:36;;;;;;;8.05;5.55;;;16.30;34.90;15.40;102121.00;;;;5054020;28;20330;-65
2022/03/10 03:35:22;;;;;;;7.30;5.43;;;16.20;34.90;15.40;102109.00;;;;5053816;28;20067;-65
2022/03/10 03:38:08;;;;;;;8.73;5.78;;;16.20;34.90;15.40;102109.00;;;;5054228;28;20422;-65
2022/03/10 03:40:54;;;;;;;7.25;4.85;;;16.20;35.60;15.40;102115.00;;;;5037587;28;20045;-65
2022/03/10 03:43:40;;;;;;;8.15;5.05;;;16.20;34.90;15.40;102118.00;;;;5056838;28;20044;-65
2022/03/10 03:46:26;;;;;;;7.93;5.80;;;16.20;35.00;15.40;102116.00;;;;5055955;28;20687;-65
2022/03/10 03:49:13;;;;;;;7.05;5.38;;;16.20;34.90;15.40;102126.00;;;;5056494;28;20632;-65
2022/03/10 03:51:59;;;;;;;6.90;4.97;;;16.20;34.90;15.30;102117.00;;;;5045032;28;20128;-65
2022/03/10 03:54:45;;;;;;;6.85;5.05;;;16.20;35.00;15.30;102119.00;;;;5053313;28;20047;-65
2022/03/10 03:57:31;;;;;;;6.00;4.93;;;16.20;35.00;15.30;102121.00;;;;5052506;28;20104;-65
2022/03/10 04:00:18;;;;;;;7.38;5.07;;;16.20;35.00;15.30;102125.00;;;;5055254;28;20041;-65
2022/03/10 04:03:09;;;;;;;8.00;5.47;;;16.20;35.00;15.30;102131.00;;;;5056035;28;20047;-65
2022/03/10 04:05:55;;;;;;;7.25;5.78;;;16.20;35.00;15.30;102136.00;;;;5043142;28;20045;-65
2022/03/10 04:08:41;;;;;;;6.88;5.10;;;16.20;35.00;15.30;102141.00;;;;5053047;28;20412;-66
2022/03/10 04:11:27;;;;;;;7.43;5.28;;;16.20;35.00;15.30;102132.00;;;;5055069;28;20048;-65
2022/03/10 04:14:13;;;;;;;7.63;5.38;;;16.20;35.00;15.30;102131.00;;;;5042027;28;20041;-65
2022/03/10 04:16:59;;;;;;;6.47;4.88;;;16.20;35.00;15.30;102141.00;;;;5045612;28;20064;-65
2022/03/10 04:19:45;;;;;;;6.03;4.40;;;16.20;35.00;15.30;102122.00;;;;5052529;28;20048;-65
2022/03/10 04:22:31;;;;;;;6.65;5.13;;;16.20;35.00;15.30;102136.00;;;;5061980;28;20056;-65
2022/03/10 04:25:17;;;;;;;6.97;5.50;;;16.20;35.00;15.30;102140.00;;;;5053844;28;20041;-65
2022/03/10 04:28:03;;;;;;;6.78;5.70;;;16.20;35.10;15.30;102129.00;;;;5057597;28;20044;-65
2022/03/10 04:30:52;;;;;;;7.60;5.15;;;16.20;35.10;15.30;102128.00;;;;5055141;28;20044;-65
2022/03/10 04:33:39;;;;;;;6.28;4.93;;;16.20;35.10;15.30;102127.00;;;;5041901;28;20086;-65
2022/03/10 04:36:25;;;;;;;7.60;5.40;;;16.20;35.10;15.30;102127.00;;;;5054808;28;20055;-65
2022/03/10 04:39:11;;;;;;;6.38;4.70;;;16.20;35.10;15.30;102128.00;;;;5051503;28;20033;-65
2022/03/10 04:41:57;;;;;;;6.43;5.00;;;16.20;35.20;15.30;102126.00;;;;5054869;28;20055;-65
2022/03/10 04:44:43;;;;;;;7.72;5.13;;;16.10;35.10;15.30;102120.00;;;;5052332;28;20056;-65
2022/03/10 04:47:29;;;;;;;6.75;5.13;;;16.10;35.20;15.30;102128.00;;;;5057012;28;20094;-66
2022/03/10 04:50:16;;;;;;;7.07;5.70;;;16.10;35.20;15.30;102129.00;;;;5044195;28;20041;-65
2022/03/10 04:53:03;;;;;;;6.40;5.05;;;16.10;35.10;15.20;102129.00;;;;5055330;28;20049;-65
2022/03/10 04:55:49;;;;;;;7.20;4.93;;;16.10;35.20;15.20;102133.00;;;;5053719;28;20115;-65
2022/03/10 04:58:35;;;;;;;8.23;5.15;;;16.10;35.20;15.20;102135.00;;;;5054076;28;20056;-65
2022/03/10 05:01:21;;;;;;;8.35;5.40;;;16.10;35.20;15.20;102133.00;;;;5055743;28;20041;-65
2022/03/10 05:04:07;;;;;;;6.57;5.25;;;16.10;35.20;15.20;102132.00;;;;5057065;28;20045;-65
2022/03/10 05:06:53;;;;;;;6.78;4.97;;;16.10;35.20;15.20;102132.00;;;;5055118;28;20056;-65
2022/03/10 05:09:39;;;;;;;7.60;4.97;;;16.10;35.20;15.20;102135.00;;;;5051407;28;20564;-65
2022/03/10 05:12:25;;;;;;;7.95;5.55;;;16.10;35.20;15.20;102143.00;;;;5056259;28;20410;-65
2022/03/10 05:15:11;;;;;;;6.50;5.35;;;16.10;35.20;15.20;102143.00;;;;5042281;28;20106;-65
2022/03/10 05:17:58;;;;;;;5.93;4.90;;;16.10;35.20;15.20;102140.00;;;;5059248;28;20037;-65
2022/03/10 05:20:46;;;;;;;8.00;5.35;;;16.10;35.20;15.20;102139.00;;;;5031746;28;20074;-65
2022/03/10 05:23:32;;;;;;;6.45;5.22;;;16.00;35.10;15.20;102140.00;;;;5061371;28;20049;-65
2022/03/10 05:26:21;;;;;;;7.68;5.15;;;16.00;35.10;15.20;102140.00;;;;5054076;28;20074;-65
2022/03/10 05:29:07;;;;;;;7.90;5.45;;;16.00;35.20;15.20;102144.00;;;;5062779;28;20049;-65
2022/03/10 05:31:53;;;;;;;7.55;5.50;;;16.00;35.10;15.20;102151.00;;;;5058776;28;20110;-65
2022/03/10 05:34:39;;;;;;;6.30;5.47;;;16.00;35.20;15.20;102149.00;;;;5056106;28;20043;-65
2022/03/10 05:37:25;;;;;;;8.95;5.47;;;16.00;35.20;15.20;102157.00;;;;5052634;28;20032;-65
2022/03/10 05:40:17;;;;;;;6.97;5.20;;;16.00;35.20;15.20;102141.00;;;;5059436;28;20379;-65
2022/03/10 05:43:03;;;;;;;6.32;5.25;;;16.00;35.20;15.10;102147.00;;;;5049482;28;20051;-65
2022/03/10 05:45:49;;;;;;;8.10;5.18;;;16.00;35.20;15.10;102153.00;;;;5055577;28;20048;-65
2022/03/10 05:48:35;;;;;;;6.75;4.90;;;16.00;35.20;15.20;102154.00;;;;5065250;28;20048;-65
2022/03/10 05:51:21;;;;;;;6.18;4.88;;;16.00;35.20;15.10;102153.00;;;;5054316;28;20049;-65
2022/03/10 05:54:07;;;;;;;7.47;5.60;;;16.00;35.20;15.10;102147.00;;;;5056071;28;20082;-65
2022/03/10 05:56:53;;;;;;;7.68;5.38;;;16.00;35.20;15.10;102143.00;;;;5058695;28;20052;-65
2022/03/10 05:59:39;;;;;;;6.43;5.13;;;16.00;35.20;15.10;102146.00;;;;5055119;28;20048;-65
2022/03/10 06:02:25;;;;;;;7.40;5.40;;;16.00;35.20;15.10;102156.00;;;;5058148;28;20041;-65
2022/03/10 06:05:11;;;;;;;6.43;5.30;;;16.00;35.20;15.10;102156.00;;;;5054592;28;20356;-65
2022/03/10 06:07:57;;;;;;;7.60;4.90;;;16.00;35.30;15.10;102165.00;;;;5059258;28;20044;-65
2022/03/10 06:10:43;;;;;;;6.85;5.07;;;15.90;35.20;15.10;102160.00;;;;5036942;28;20053;-65
2022/03/10 06:13:29;;;;;;;7.03;4.90;;;16.00;35.30;15.10;102171.00;;;;5062270;28;20571;-65
2022/03/10 06:16:15;;;;;;;6.63;4.93;;;15.90;35.20;15.10;102171.00;;;;5056488;28;20098;-65
2022/03/10 06:19:01;;;;;;;6.57;5.45;;;15.90;35.20;15.10;102176.00;;;;5059895;28;20375;-65
2022/03/10 06:21:48;;;;;;;6.50;4.97;;;15.90;35.20;15.10;102186.00;;;;5046300;28;20032;-65
2022/03/10 06:24:34;;;;;;;8.65;5.68;;;16.00;35.30;15.10;102193.00;;;;5054917;28;20048;-65
2022/03/10 06:27:22;;;;;;;10.93;5.70;;;15.90;35.20;15.10;102190.00;;;;5056657;28;20406;-65
2022/03/10 06:30:09;;;;;;;6.25;5.13;;;16.00;35.30;15.10;102197.00;;;;5056464;28;20052;-65
2022/03/10 06:32:55;;;;;;;8.55;5.78;;;15.90;35.30;15.10;102193.00;;;;5043674;28;20094;-65
2022/03/10 06:35:41;;;;;;;6.40;4.85;;;15.90;35.20;15.10;102201.00;;;;5040733;28;20117;-65
2022/03/10 06:38:27;;;;;;;5.80;4.93;;;15.90;35.30;15.10;102194.00;;;;5055682;28;20052;-65
2022/03/10 06:41:13;;;;;;;6.45;5.13;;;15.90;35.20;15.10;102197.00;;;;5052185;28;20040;-65
2022/03/10 06:43:59;;;;;;;6.95;5.47;;;15.90;35.30;15.10;102195.00;;;;5058369;28;20047;-65
2022/03/10 06:46:45;;;;;;;9.30;5.28;;;15.90;35.30;15.10;102193.00;;;;5049301;28;20040;-65
2022/03/10 06:49:32;;;;;;;7.70;5.32;;;15.90;35.30;15.00;102194.00;;;;5051367;28;20052;-65
2022/03/10 06:52:19;;;;;;;7.55;5.43;;;15.90;35.30;15.00;102193.00;;;;5052262;28;20106;-65
2022/03/10 06:55:06;;;;;;;7.00;4.90;;;15.90;35.30;15.10;102203.00;;;;5050801;28;20044;-65
2022/03/10 06:57:53;;;;;;;6.28;5.28;;;15.90;35.30;15.10;102200.00;;;;5039098;28;20487;-65
2022/03/10 07:00:39;;;;;;;7.63;5.13;;;15.90;35.30;15.10;102197.00;;;;5051280;28;20399;-65
2022/03/10 07:03:25;;;;;;;6.72;5.35;;;15.90;35.30;15.10;102198.00;;;;5054123;28;20094;-65
2022/03/10 07:06:11;;;;;;;8.35;5.25;;;15.90;35.30;15.10;102200.00;;;;5056127;28;20174;-65
2022/03/10 07:08:58;;;;;;;6.78;5.18;;;15.90;35.30;15.10;102211.00;;;;5054854;28;20044;-65
2022/03/10 07:11:44;;;;;;;8.43;5.38;;;15.90;35.30;15.10;102208.00;;;;5041746;28;20418;-65
2022/03/10 07:14:30;;;;;;;7.03;5.35;;;15.80;35.20;15.10;102209.00;;;;5057118;28;20055;-65
2022/03/10 07:17:16;;;;;;;6.40;4.80;;;15.90;35.30;15.10;102218.00;;;;5040213;28;20407;-65
2022/03/10 07:20:03;;;;;;;9.00;5.07;;;15.90;35.20;15.10;102220.00;;;;5053076;28;20040;-65
2022/03/10 07:22:49;;;;;;;6.03;4.75;;;15.90;35.20;15.10;102216.00;;;;5057497;28;20122;-65
2022/03/10 07:25:35;;;;;;;7.93;5.47;;;15.90;35.30;15.10;102210.00;;;;5050270;28;20403;-65
2022/03/10 07:28:21;;;;;;;7.35;5.25;;;16.00;35.30;15.10;102215.00;;;;5053024;28;20078;-65
2022/03/10 07:31:07;;;;;;;6.53;5.15;;;16.00;35.30;15.10;102223.00;;;;5034975;28;20205;-65
2022/03/10 07:33:53;;;;;;;8.85;5.43;;;16.00;35.30;15.10;102216.00;;;;5051861;28;20356;-66
2022/03/10 07:36:42;;;;;;;7.32;4.78;;;16.00;35.30;15.10;102215.00;;;;5054518;28;20063;-66
2022/03/10 07:39:28;;;;;;;6.07;4.78;;;16.00;35.30;15.10;102208.00;;;;5050884;28;20120;-66
2022/03/10 07:42:15;;;;;;;7.38;5.35;;;16.00;35.30;15.10;102213.00;;;;5053580;28;20623;-66
2022/03/10 07:45:01;;;;;;;6.55;5.53;;;16.00;35.30;15.10;102223.00;;;;5055567;28;20605;-66
2022/03/10 07:47:47;;;;;;;6.82;5.22;;;16.00;35.30;15.10;102220.00;;;;5054637;28;20036;-66
2022/03/10 07:50:34;;;;;;;8.00;5.40;;;16.00;35.30;15.20;102219.00;;;;5053979;28;20044;-66
2022/03/10 07:53:20;;;;;;;7.70;5.35;;;16.00;35.30;15.20;102218.00;;;;5056686;28;20040;-66
2022/03/10 07:56:06;;;;;;;6.53;4.88;;;16.10;35.40;15.20;102229.00;;;;5054570;28;20075;-66
2022/03/10 07:58:53;;;;;;;8.00;5.00;;;16.10;35.40;15.20;102218.00;;;;5054363;28;20067;-66
2022/03/10 08:01:39;;;;;;;6.28;5.05;;;16.10;35.30;15.20;102219.00;;;;5054307;28;20115;-66
2022/03/10 08:04:25;;;;;;;7.53;5.20;;;16.10;35.40;15.20;102225.00;;;;5056318;28;20041;-66
2022/03/10 08:07:11;;;;;;;10.57;5.18;;;16.10;35.40;15.20;102221.00;;;;5055379;28;20044;-66
2022/03/10 08:09:57;;;;;;;7.63;5.35;;;16.10;35.40;15.20;102225.00;;;;5057133;28;20486;-66
2022/03/10 08:12:43;;;;;;;5.78;4.72;;;16.10;35.40;15.20;102213.00;;;;5040752;28;20040;-66
2022/03/10 08:15:29;;;;;;;5.25;4.40;;;16.10;35.30;15.20;102222.00;;;;5053762;28;20048;-66
2022/03/10 08:18:16;;;;;;;7.15;4.70;;;16.10;35.40;15.20;102217.00;;;;5055039;28;20433;-66
2022/03/10 08:21:02;;;;;;;8.32;5.35;;;16.20;35.40;15.20;102210.00;;;;5057967;28;20056;-66
2022/03/10 08:23:48;;;;;;;6.72;5.13;;;16.20;35.40;15.20;102206.00;;;;5038761;28;20043;-67
2022/03/10 08:26:34;;;;;;;7.82;5.53;;;16.20;35.40;15.30;102205.00;;;;5058218;28;20033;-66
2022/03/10 08:29:20;;;;;;;7.22;5.20;;;16.20;35.40;15.30;102202.00;;;;5053844;28;20048;-66
2022/03/10 08:32:07;;;;;;;9.13;5.22;;;16.20;35.30;15.20;102202.00;;;;5057513;28;20506;-66
2022/03/10 08:34:53;;;;;;;7.10;5.07;;;16.20;35.30;15.30;102200.00;;;;5031946;28;20866;-66
2022/03/10 08:37:39;;;;;;;6.63;4.93;;;16.20;35.30;15.20;102199.00;;;;5055875;28;20029;-67
2022/03/10 08:40:25;;;;;;;7.50;5.13;;;16.30;35.40;15.30;102201.00;;;;5056025;28;20086;-66
2022/03/10 08:43:12;;;;;;;5.93;4.72;;;16.20;35.30;15.30;102191.00;;;;5062130;28;20048;-66
2022/03/10 08:45:58;;;;;;;6.85;5.05;;;16.20;35.30;15.30;102190.00;;;;5058733;28;20337;-67
2022/03/10 08:48:45;;;;;;;6.53;4.72;;;16.20;35.30;15.30;102187.00;;;;5044941;28;20044;-66
2022/03/10 08:51:31;;;;;;;9.10;5.45;;;16.20;35.30;15.30;102192.00;;;;5053636;28;20353;-66
2022/03/10 08:54:17;;;;;;;7.75;5.07;;;16.30;35.40;15.30;102187.00;;;;5057229;28;20032;-67
2022/03/10 08:57:03;;;;;;;6.95;5.03;;;16.20;35.30;15.30;102187.00;;;;5054817;28;20494;-67
2022/03/10 08:59:51;;;;;;;6.70;5.22;;;16.20;35.30;15.30;102190.00;;;;5053074;28;20119;-66
2022/03/10 09:02:37;;;;;;;6.87;5.20;;;16.20;35.30;15.30;102193.00;;;;5054149;28;20044;-66
2022/03/10 09:05:23;;;;;;;5.43;4.38;;;16.30;35.30;15.30;102193.00;;;;5052246;28;20636;-66
2022/03/10 09:08:09;;;;;;;5.65;4.65;;;16.30;35.30;15.30;102190.00;;;;5055455;28;20479;-66
2022/03/10 09:10:55;;;;;;;6.03;5.00;;;16.30;35.40;15.30;102187.00;;;;5052387;28;20518;-66
2022/03/10 09:13:44;;;;;;;6.95;4.72;;;16.30;35.40;15.30;102184.00;;;;5039465;28;20048;-66
2022/03/10 09:16:30;;;;;;;5.45;3.97;;;16.30;35.30;15.30;102173.00;;;;5041829;28;20041;-66
2022/03/10 09:19:16;;;;;;;6.35;4.57;;;16.40;35.40;15.30;102175.00;;;;5055496;28;20572;-66
2022/03/10 09:22:02;;;;;;;7.05;4.82;;;16.20;35.30;15.40;102172.00;;;;5038515;28;20051;-66
2022/03/10 09:24:48;;;;;;;6.28;4.18;;;16.30;35.30;15.40;102168.00;;;;5057234;28;20486;-66
2022/03/10 09:27:40;;;;;;;6.35;4.55;;;16.30;35.30;15.40;102164.00;;;;5056919;28;20518;-66
2022/03/10 09:30:54;;;;;;;5.57;4.53;;;16.30;35.40;15.40;102166.00;;;;5020641;28;20052;-66
2022/03/10 09:33:40;;;;;;;7.90;4.45;;;16.40;35.40;15.40;102166.00;;;;5045148;28;20085;-67
2022/03/10 09:36:26;;;;;;;6.72;5.00;;;16.40;35.40;15.40;102159.00;;;;5054378;28;20036;-66
2022/03/10 09:39:13;;;;;;;6.18;4.80;;;16.40;35.40;15.40;102147.00;;;;5041400;28;20043;-66
2022/03/10 09:41:59;;;;;;;5.97;4.45;;;16.40;35.40;15.40;102150.00;;;;5052496;28;20044;-66
2022/03/10 09:44:47;;;;;;;5.93;3.97;;;16.40;35.30;15.40;102151.00;;;;5039075;28;20040;-67
2022/03/10 09:47:34;;;;;;;7.85;5.07;;;16.40;35.40;15.40;102152.00;;;;5030667;28;20131;-66
2022/03/10 09:50:20;;;;;;;5.95;4.03;;;16.40;35.40;15.40;102148.00;;;;5039619;28;20129;-66
2022/03/10 09:53:06;;;;;;;6.00;4.55;;;16.40;35.30;15.40;102151.00;;;;5055219;28;20044;-66
2022/03/10 09:55:52;;;;;;;9.77;4.30;;;16.40;35.30;15.40;102146.00;;;;5029665;28;20032;-67
2022/03/10 09:58:38;;;;;;;6.80;4.30;;;16.40;35.30;15.40;102145.00;;;;5031410;28;20872;-66
2022/03/10 10:01:24;;;;;;;7.03;4.72;;;16.40;35.30;15.40;102154.00;;;;5052444;28;20455;-66
2022/03/10 10:04:10;;;;;;;6.60;5.00;;;16.40;35.40;15.40;102161.00;;;;5052778;28;20037;-67
2022/03/10 10:07:05;;;;;;;6.57;4.32;;;16.40;35.40;15.40;102159.00;;;;5052903;28;20486;-66
2022/03/10 10:09:56;;;;;;;6.85;5.03;;;16.40;35.30;15.40;102154.00;;;;5040600;28;20041;-66
2022/03/10 10:12:42;;;;;;;7.38;4.60;;;16.50;35.40;15.40;102143.00;;;;5039788;28;20356;-66
2022/03/10 10:15:39;;;;;;;7.80;5.00;;;16.40;35.30;15.40;102154.00;;;;5031838;28;20033;-66
2022/03/10 10:18:25;;;;;;;7.55;4.63;;;16.40;35.40;15.40;102154.00;;;;5038784;28;20040;-66
2022/03/10 10:21:14;;;;;;;6.22;4.57;;;16.50;35.40;15.50;102159.00;;;;5053216;28;20110;-66
2022/03/10 10:24:00;;;;;;;6.13;4.60;;;16.50;35.40;15.50;102153.00;;;;5037510;28;20376;-66
2022/03/10 10:26:46;;;;;;;7.47;4.93;;;16.40;35.30;15.50;102149.00;;;;5054370;28;20037;-66
2022/03/10 10:29:32;;;;;;;5.20;4.32;;;16.50;35.40;15.50;102142.00;;;;5038060;28;20060;-66
2022/03/10 10:32:34;;;;;;;6.70;4.97;;;16.50;35.40;15.50;102147.00;;;;5050406;28;20094;-66
2022/03/10 10:35:20;;;;;;;6.32;4.57;;;16.50;35.40;15.50;102146.00;;;;5036463;28;20132;-66
2022/03/10 10:38:06;;;;;;;6.93;4.60;;;16.50;35.40;15.50;102140.00;;;;5039174;28;20041;-66
2022/03/10 10:40:55;;;;;;;6.18;4.32;;;16.50;35.40;15.50;102137.00;;;;5030413;28;20556;-66
2022/03/10 10:43:42;;;;;;;7.90;5.28;;;16.50;35.40;15.50;102128.00;;;;5027424;28;20036;-66
2022/03/10 10:46:38;;;;;;;6.95;5.00;;;16.50;35.30;15.50;102121.00;;;;5035416;28;20498;-66
2022/03/10 10:49:25;;;;;;;7.15;5.10;;;16.50;35.40;15.50;102128.00;;;;5040244;28;20055;-65
2022/03/10 10:52:11;;;;;;;7.50;5.25;;;16.50;35.30;15.50;102120.00;;;;5057973;28;20119;-65
2022/03/10 10:55:09;;;;;;;7.00;4.90;;;16.50;35.30;15.50;102117.00;;;;5055323;28;20050;-66
2022/03/10 10:57:55;;;;;;;6.45;4.65;;;16.50;35.30;15.50;102120.00;;;;5052858;28;20124;-65
2022/03/10 11:00:49;;;;;;;7.05;5.00;;;16.50;35.30;15.50;102113.00;;;;5053903;28;20041;-65
2022/03/10 11:03:37;;;;;;;7.80;4.97;;;16.50;35.40;15.50;102110.00;;;;5031859;28;20749;-65
2022/03/10 11:06:23;;;;;;;7.63;5.45;;;16.50;35.30;15.50;102101.00;;;;5057766;28;20147;-66
2022/03/10 11:09:09;;;;;;;7.95;5.05;;;16.50;35.20;15.50;102098.00;;;;5037933;28;20052;-65
2022/03/10 11:11:55;;;;;;;9.10;5.72;;;16.50;35.20;15.50;102089.00;;;;5037843;28;20479;-65
2022/03/10 11:14:42;;;;;;;6.57;4.85;;;16.50;35.20;15.50;102096.00;;;;5041815;28;20048;-65
2022/03/10 11:17:28;;;;;;;7.30;5.53;;;16.60;35.30;15.50;102088.00;;;;5057687;28;20047;-65
2022/03/10 11:20:14;;;;;;;7.47;5.20;;;16.60;35.30;15.50;102088.00;;;;5037327;28;20049;-65
2022/03/10 11:23:28;;;;;;;7.80;5.22;;;16.60;35.30;15.60;102086.00;;;;5038465;28;20461;-65
2022/03/10 11:26:29;;;;;;;7.22;5.03;;;16.60;35.40;15.60;102079.00;;;;5038701;28;20040;-65
2022/03/10 11:29:24;;;;;;;8.07;5.53;;;16.60;35.30;15.50;102076.00;;;;5041325;28;20044;-66
2022/03/10 11:32:10;;;;;;;8.07;5.55;;;16.60;35.30;15.60;102083.00;;;;5040712;28;20407;-65
2022/03/10 11:35:01;;;;;;;9.88;6.25;;;16.60;35.20;15.60;102072.00;;;;5041883;28;20037;-66
2022/03/10 11:37:47;;;;;;;9.20;6.15;;;16.60;35.10;15.60;102077.00;;;;5042132;28;20033;-65
2022/03/10 11:40:51;;;;;;;8.00;5.35;;;16.60;35.10;15.60;102063.00;;;;5054310;28;20378;-66
2022/03/10 11:43:38;;;;;;;8.05;5.65;;;16.60;35.10;15.60;102066.00;;;;5053950;28;20106;-65
2022/03/10 11:46:29;;;;;;;8.85;5.93;;;16.60;35.10;15.60;102064.00;;;;5053943;28;20052;-65
2022/03/10 11:49:15;;;;;;;9.30;6.07;;;16.60;35.10;15.60;102055.00;;;;5050078;28;20504;-65
2022/03/10 11:52:04;;;;;;;10.60;6.78;;;16.60;35.00;15.60;102062.00;;;;5043382;28;20137;-65
2022/03/10 11:55:05;;;;;;;10.40;5.95;;;16.60;35.00;15.60;102059.00;;;;5055074;28;20043;-65
2022/03/10 11:58:13;;;;;;;7.65;5.43;;;16.60;34.90;15.60;102056.00;;;;5055135;28;20041;-65
2022/03/10 12:00:59;;;;;;;10.95;6.30;;;16.60;35.00;15.60;102057.00;;;;5050315;28;20481;-66
2022/03/10 12:03:46;;;;;;;11.32;7.22;;;16.70;35.00;15.60;102062.00;;;;5036408;28;20838;-65
2022/03/10 12:06:32;;;;;;;10.67;6.47;;;16.70;35.00;15.60;102045.00;;;;5052856;28;20049;-66
2022/03/10 12:09:30;;;;;;;10.00;6.82;;;16.70;35.00;15.60;102052.00;;;;5037651;28;20044;-65
2022/03/10 12:12:26;;;;;;;11.93;6.47;;;16.70;34.90;15.60;102044.00;;;;5040106;28;20037;-65
2022/03/10 12:15:35;;;;;;;8.07;5.75;;;16.70;34.90;15.60;102048.00;;;;5043231;28;20040;-65
2022/03/10 12:18:41;;;;;;;;;;;16.80;35.00;15.60;102047.00;;;;5056283;28;20175;-65
2022/03/10 12:21:30;;;;;;;14.45;6.28;;;16.70;34.90;15.60;102043.00;;;;5049778;28;19912;-65